PWSweather.com
Personal Weather Stations
Station Observations
UWIDEPER1
Brown County, Depere, WI 54115

Brown CountyDepere, WI 54115

Lat: 44.44, Lon: -88.05

Elevation: 610

Station Type: Acurite 5in1

Latest ConditionsUpdated 1:50:01 PM CST Sunday, Nov 19, 2017
Currently Today's Max Today's Min Today's Average
Temperature 31.6°F-0.2°C 32.2°F0.1°C 24.8°F-4.0°C 28.0°F-2.2°C
Dew Point 17.3°F-8.2°C 27.0°F-2.8°C 14.9°F-9.5°C 19.3°F-7.1°C
Winds 5.8 mph WSW9.3 kmh WSW 11.5 mph WNW18.5 kmh WNW - 7.0 mph 11.3 kmh
Wind Gusts 5.8 mph9.3 kmh 18.4 mph29.6 kmh - -
Humidity 55% 81% 50% 70%
Pressure 29.97 in1014.9 mb 30.00 in1015.9 mb 29.83 in1010.2 mb -
Hour Temp Dew Point Humidity Winds Wind Gusts Pressure Precip Precip Rate Daily Precip Total
01:50 PM 31.6°F-0.2°C 17.3°F-8.2°C 55% 5.8 mph WSW9.3 kmh WSW 5.8 mph9.3 kmh 29.97 in1014.9 mb - 0.00 in0.0 mm 0.00 in0.0 mm
01:45 PM 31.4°F-0.3°C 14.9°F-9.5°C 50% 8.1 mph WSW13.0 kmh WSW 6.9 mph11.1 kmh 29.97 in1014.9 mb - 0.00 in0.0 mm 0.00 in0.0 mm
01:40 PM 31.6°F-0.2°C 15.1°F-9.4°C 50% 8.1 mph W13.0 kmh W 13.8 mph22.2 kmh 29.97 in1014.9 mb - 0.00 in0.0 mm 0.00 in0.0 mm
01:35 PM 31.6°F-0.2°C 16.0°F-8.9°C 52% 6.9 mph W11.1 kmh W 10.4 mph16.7 kmh 29.97 in1014.9 mb - 0.00 in0.0 mm 0.00 in0.0 mm
01:30 PM 31.6°F-0.2°C 17.3°F-8.2°C 55% 5.8 mph WSW9.3 kmh WSW 4.6 mph7.4 kmh 29.97 in1014.9 mb - 0.00 in0.0 mm 0.00 in0.0 mm
01:25 PM 31.2°F-0.4°C 16.4°F-8.7°C 54% 6.9 mph W11.1 kmh W 5.8 mph9.3 kmh 29.97 in1014.9 mb - 0.00 in0.0 mm 0.00 in0.0 mm
01:20 PM 31.2°F-0.4°C 16.9°F-8.4°C 55% 6.9 mph WNW11.1 kmh WNW 8.1 mph13.0 kmh 29.97 in1014.9 mb - 0.00 in0.0 mm 0.00 in0.0 mm
01:15 PM 31.2°F-0.4°C 17.3°F-8.2°C 56% 5.8 mph W9.3 kmh W 8.1 mph13.0 kmh 29.97 in1014.9 mb - 0.00 in0.0 mm 0.00 in0.0 mm
01:10 PM 31.1°F-0.5°C 16.4°F-8.7°C 54% 6.9 mph WSW11.1 kmh WSW 8.1 mph13.0 kmh 29.97 in1014.9 mb - 0.00 in0.0 mm 0.00 in0.0 mm
01:00 PM 31.2°F-0.4°C 16.9°F-8.4°C 55% 8.1 mph W13.0 kmh W 11.5 mph18.5 kmh 29.98 in1015.2 mb - 0.00 in0.0 mm 0.00 in0.0 mm
12:55 PM 30.7°F-0.7°C 16.9°F-8.4°C 56% 6.9 mph W11.1 kmh W 10.4 mph16.7 kmh 29.98 in1015.2 mb - 0.00 in0.0 mm 0.00 in0.0 mm
12:50 PM 31.0°F-0.6°C 16.7°F-8.5°C 55% 8.1 mph WSW13.0 kmh WSW 11.5 mph18.5 kmh 29.98 in1015.2 mb - 0.00 in0.0 mm 0.00 in0.0 mm
12:45 PM 30.7°F-0.7°C 16.9°F-8.4°C 56% 5.8 mph WSW9.3 kmh WSW 6.9 mph11.1 kmh 29.98 in1015.2 mb - 0.00 in0.0 mm 0.00 in0.0 mm
12:40 PM 30.7°F-0.7°C 16.5°F-8.6°C 55% 5.8 mph WNW9.3 kmh WNW 9.2 mph14.8 kmh 29.98 in1015.2 mb - 0.00 in0.0 mm 0.00 in0.0 mm
12:35 PM 30.4°F-0.9°C 16.1°F-8.8°C 55% 5.8 mph W9.3 kmh W 3.5 mph5.6 kmh 29.98 in1015.2 mb - 0.00 in0.0 mm 0.00 in0.0 mm
12:30 PM 30.1°F-1.1°C 15.9°F-8.9°C 55% 9.2 mph W14.8 kmh W 8.1 mph13.0 kmh 29.98 in1015.2 mb - 0.00 in0.0 mm 0.00 in0.0 mm
12:25 PM 30.4°F-0.9°C 17.7°F-7.9°C 59% 5.8 mph SW9.3 kmh SW 6.9 mph11.1 kmh 29.98 in1015.2 mb - 0.00 in0.0 mm 0.00 in0.0 mm
12:20 PM 29.8°F-1.2°C 17.2°F-8.2°C 59% 6.9 mph S11.1 kmh S 12.7 mph20.4 kmh 29.99 in1015.6 mb - 0.00 in0.0 mm 0.00 in0.0 mm
12:15 PM 29.8°F-1.2°C 17.6°F-8.0°C 60% 6.9 mph W11.1 kmh W 11.5 mph18.5 kmh 29.98 in1015.2 mb - 0.00 in0.0 mm 0.00 in0.0 mm
12:10 PM 29.1°F-1.6°C 17.0°F-8.3°C 60% 6.9 mph SW11.1 kmh SW 9.2 mph14.8 kmh 29.98 in1015.2 mb - 0.00 in0.0 mm 0.00 in0.0 mm
12:00 PM 29.7°F-1.3°C 17.5°F-8.1°C 60% 6.9 mph WSW11.1 kmh WSW 15.0 mph24.1 kmh 29.99 in1015.6 mb - 0.00 in0.0 mm 0.00 in0.0 mm
11:55 AM 29.1°F-1.6°C 18.1°F-7.7°C 63% 5.8 mph W9.3 kmh W 6.9 mph11.1 kmh 29.99 in1015.6 mb - 0.00 in0.0 mm 0.00 in0.0 mm
11:50 AM 29.1°F-1.6°C 18.1°F-7.7°C 63% 6.9 mph WSW11.1 kmh WSW 8.1 mph13.0 kmh 29.99 in1015.6 mb - 0.00 in0.0 mm 0.00 in0.0 mm
11:45 AM 28.2°F-2.1°C 17.2°F-8.2°C 63% 6.9 mph W11.1 kmh W 6.9 mph11.1 kmh 30.00 in1015.9 mb - 0.00 in0.0 mm 0.00 in0.0 mm
11:40 AM 29.0°F-1.7°C 18.0°F-7.8°C 63% 6.9 mph W11.1 kmh W 5.8 mph9.3 kmh 29.99 in1015.6 mb - 0.00 in0.0 mm 0.00 in0.0 mm
11:35 AM 29.5°F-1.4°C 17.7°F-7.9°C 61% 5.8 mph W9.3 kmh W 8.1 mph13.0 kmh 29.99 in1015.6 mb - 0.00 in0.0 mm 0.00 in0.0 mm
11:30 AM 29.1°F-1.6°C 17.3°F-8.2°C 61% 5.8 mph W9.3 kmh W 8.1 mph13.0 kmh 29.99 in1015.6 mb - 0.00 in0.0 mm 0.00 in0.0 mm
11:25 AM 28.8°F-1.8°C 17.7°F-7.9°C 63% 5.8 mph SW9.3 kmh SW 10.4 mph16.7 kmh 30.00 in1015.9 mb - 0.00 in0.0 mm 0.00 in0.0 mm
11:20 AM 28.8°F-1.8°C 17.7°F-7.9°C 63% 6.9 mph WSW11.1 kmh WSW 10.4 mph16.7 kmh 30.00 in1015.9 mb - 0.00 in0.0 mm 0.00 in0.0 mm
11:15 AM 28.8°F-1.8°C 17.0°F-8.3°C 61% 5.8 mph W9.3 kmh W 6.9 mph11.1 kmh 30.00 in1015.9 mb - 0.00 in0.0 mm 0.00 in0.0 mm
11:10 AM 28.2°F-2.1°C 17.2°F-8.2°C 63% 5.8 mph W9.3 kmh W 4.6 mph7.4 kmh 30.00 in1015.9 mb - 0.00 in0.0 mm 0.00 in0.0 mm
11:00 AM 28.3°F-2.1°C 17.3°F-8.2°C 63% 5.8 mph W9.3 kmh W 9.2 mph14.8 kmh 30.00 in1015.9 mb - 0.00 in0.0 mm 0.00 in0.0 mm
10:55 AM 28.1°F-2.2°C 17.1°F-8.3°C 63% 6.9 mph WSW11.1 kmh WSW 9.2 mph14.8 kmh 30.00 in1015.9 mb - 0.00 in0.0 mm 0.00 in0.0 mm
10:50 AM 27.9°F-2.3°C 16.9°F-8.4°C 63% 5.8 mph WSW9.3 kmh WSW 4.6 mph7.4 kmh 30.00 in1015.9 mb - 0.00 in0.0 mm 0.00 in0.0 mm
10:45 AM 27.9°F-2.3°C 16.9°F-8.4°C 63% 5.8 mph E9.3 kmh E 6.9 mph11.1 kmh 30.00 in1015.9 mb - 0.00 in0.0 mm 0.00 in0.0 mm
10:40 AM 27.8°F-2.3°C 16.5°F-8.6°C 62% 6.9 mph W11.1 kmh W 9.2 mph14.8 kmh 30.00 in1015.9 mb - 0.00 in0.0 mm 0.00 in0.0 mm
10:35 AM 27.9°F-2.3°C 16.9°F-8.4°C 63% 5.8 mph W9.3 kmh W 8.1 mph13.0 kmh 30.00 in1015.9 mb - 0.00 in0.0 mm 0.00 in0.0 mm
10:30 AM 27.7°F-2.4°C 16.7°F-8.5°C 63% 6.9 mph W11.1 kmh W 6.9 mph11.1 kmh 30.00 in1015.9 mb - 0.00 in0.0 mm 0.00 in0.0 mm
10:25 AM 27.7°F-2.4°C 17.4°F-8.1°C 65% 5.8 mph W9.3 kmh W 10.4 mph16.7 kmh 30.00 in1015.9 mb - 0.00 in0.0 mm 0.00 in0.0 mm
10:20 AM 27.5°F-2.5°C 16.9°F-8.4°C 64% 5.8 mph NW9.3 kmh NW 12.7 mph20.4 kmh 30.00 in1015.9 mb - 0.00 in0.0 mm 0.00 in0.0 mm
10:15 AM 26.9°F-2.8°C 16.7°F-8.5°C 65% 4.6 mph WSW7.4 kmh WSW 4.6 mph7.4 kmh 30.00 in1015.9 mb - 0.00 in0.0 mm 0.00 in0.0 mm
10:10 AM 26.7°F-2.9°C 16.9°F-8.4°C 66% 6.9 mph SW11.1 kmh SW 11.5 mph18.5 kmh 30.00 in1015.9 mb - 0.00 in0.0 mm 0.00 in0.0 mm
10:00 AM 26.8°F-2.9°C 16.9°F-8.4°C 66% 6.9 mph W11.1 kmh W 8.1 mph13.0 kmh 30.00 in1015.9 mb - 0.00 in0.0 mm 0.00 in0.0 mm
09:55 AM 25.5°F-3.6°C 17.1°F-8.3°C 70% 4.6 mph W7.4 kmh W 5.8 mph9.3 kmh 30.00 in1015.9 mb - 0.00 in0.0 mm 0.00 in0.0 mm
09:50 AM 25.2°F-3.8°C 16.7°F-8.5°C 70% 5.8 mph WSW9.3 kmh WSW 5.8 mph9.3 kmh 30.00 in1015.9 mb - 0.00 in0.0 mm 0.00 in0.0 mm
09:45 AM 24.8°F-4.0°C 16.4°F-8.7°C 70% 8.1 mph WSW13.0 kmh WSW 8.1 mph13.0 kmh 30.00 in1015.9 mb - 0.00 in0.0 mm 0.00 in0.0 mm
09:40 AM 25.0°F-3.9°C 16.6°F-8.6°C 70% 8.1 mph W13.0 kmh W 10.4 mph16.7 kmh 30.00 in1015.9 mb - 0.00 in0.0 mm 0.00 in0.0 mm
09:35 AM 25.0°F-3.9°C 16.6°F-8.6°C 70% 8.1 mph W13.0 kmh W 11.5 mph18.5 kmh 29.99 in1015.6 mb - 0.00 in0.0 mm 0.00 in0.0 mm
09:30 AM 25.3°F-3.7°C 16.9°F-8.4°C 70% 5.8 mph SW9.3 kmh SW 9.2 mph14.8 kmh 29.99 in1015.6 mb - 0.00 in0.0 mm 0.00 in0.0 mm
09:25 AM 25.3°F-3.7°C 16.9°F-8.4°C 70% 6.9 mph SW11.1 kmh SW 6.9 mph11.1 kmh 29.99 in1015.6 mb - 0.00 in0.0 mm 0.00 in0.0 mm
09:20 AM 24.8°F-4.0°C 16.4°F-8.7°C 70% 6.9 mph NW11.1 kmh NW 9.2 mph14.8 kmh 29.99 in1015.6 mb - 0.00 in0.0 mm 0.00 in0.0 mm
09:15 AM 25.2°F-3.8°C 16.7°F-8.5°C 70% 5.8 mph W9.3 kmh W 9.2 mph14.8 kmh 29.99 in1015.6 mb - 0.00 in0.0 mm 0.00 in0.0 mm
09:10 AM 25.2°F-3.8°C 16.7°F-8.5°C 70% 4.6 mph W7.4 kmh W 8.1 mph13.0 kmh 29.99 in1015.6 mb - 0.00 in0.0 mm 0.00 in0.0 mm
09:00 AM 25.2°F-3.8°C 17.1°F-8.3°C 71% 8.1 mph W13.0 kmh W 8.1 mph13.0 kmh 29.99 in1015.6 mb - 0.00 in0.0 mm 0.00 in0.0 mm
08:55 AM 25.2°F-3.8°C 17.1°F-8.3°C 71% 6.9 mph W11.1 kmh W 9.2 mph14.8 kmh 29.98 in1015.2 mb - 0.00 in0.0 mm 0.00 in0.0 mm
08:50 AM 25.2°F-3.8°C 17.7°F-7.9°C 73% 6.9 mph SSE11.1 kmh SSE 6.9 mph11.1 kmh 29.99 in1015.6 mb - 0.00 in0.0 mm 0.00 in0.0 mm
08:45 AM 25.3°F-3.7°C 17.8°F-7.9°C 73% 5.8 mph WNW9.3 kmh WNW 9.2 mph14.8 kmh 29.97 in1014.9 mb - 0.00 in0.0 mm 0.00 in0.0 mm
08:40 AM 25.3°F-3.7°C 18.2°F-7.7°C 74% 5.8 mph NW9.3 kmh NW 9.2 mph14.8 kmh 29.98 in1015.2 mb - 0.00 in0.0 mm 0.00 in0.0 mm
08:35 AM 25.3°F-3.7°C 18.2°F-7.7°C 74% 5.8 mph WNW9.3 kmh WNW 5.8 mph9.3 kmh 29.97 in1014.9 mb - 0.00 in0.0 mm 0.00 in0.0 mm
08:30 AM 25.3°F-3.7°C 18.2°F-7.7°C 74% 5.8 mph WSW9.3 kmh WSW 8.1 mph13.0 kmh 29.97 in1014.9 mb - 0.00 in0.0 mm 0.00 in0.0 mm
08:25 AM 25.3°F-3.7°C 18.2°F-7.7°C 74% 8.1 mph W13.0 kmh W 9.2 mph14.8 kmh 29.97 in1014.9 mb - 0.00 in0.0 mm 0.00 in0.0 mm
08:20 AM 25.3°F-3.7°C 18.2°F-7.7°C 74% 4.6 mph WNW7.4 kmh WNW 9.2 mph14.8 kmh 29.96 in1014.6 mb - 0.00 in0.0 mm 0.00 in0.0 mm
08:15 AM 25.3°F-3.7°C 18.2°F-7.7°C 74% 4.6 mph W7.4 kmh W 11.5 mph18.5 kmh 29.96 in1014.6 mb - 0.00 in0.0 mm 0.00 in0.0 mm
08:10 AM 25.3°F-3.7°C 18.2°F-7.7°C 74% 4.6 mph W7.4 kmh W 6.9 mph11.1 kmh 29.96 in1014.6 mb - 0.00 in0.0 mm 0.00 in0.0 mm
08:00 AM 25.2°F-3.8°C 18.0°F-7.8°C 74% 5.8 mph WNW9.3 kmh WNW 10.4 mph16.7 kmh 29.95 in1014.2 mb - 0.00 in0.0 mm 0.00 in0.0 mm
07:55 AM 25.2°F-3.8°C 18.0°F-7.8°C 74% 5.8 mph NW9.3 kmh NW 4.6 mph7.4 kmh 29.96 in1014.6 mb - 0.00 in0.0 mm 0.00 in0.0 mm
07:50 AM 25.2°F-3.8°C 17.7°F-7.9°C 73% 8.1 mph NW13.0 kmh NW 11.5 mph18.5 kmh 29.96 in1014.6 mb - 0.00 in0.0 mm 0.00 in0.0 mm
07:45 AM 25.0°F-3.9°C 16.9°F-8.4°C 71% 5.8 mph NW9.3 kmh NW 8.1 mph13.0 kmh 29.96 in1014.6 mb - 0.00 in0.0 mm 0.00 in0.0 mm
07:40 AM 25.0°F-3.9°C 16.9°F-8.4°C 71% 6.9 mph W11.1 kmh W 11.5 mph18.5 kmh 29.95 in1014.2 mb - 0.00 in0.0 mm 0.00 in0.0 mm
07:35 AM 25.0°F-3.9°C 16.9°F-8.4°C 71% 6.9 mph NW11.1 kmh NW 6.9 mph11.1 kmh 29.95 in1014.2 mb - 0.00 in0.0 mm 0.00 in0.0 mm
07:30 AM 25.0°F-3.9°C 16.9°F-8.4°C 71% 8.1 mph NW13.0 kmh NW 11.5 mph18.5 kmh 29.95 in1014.2 mb - 0.00 in0.0 mm 0.00 in0.0 mm
07:25 AM 25.0°F-3.9°C 16.9°F-8.4°C 71% 6.9 mph W11.1 kmh W 13.8 mph22.2 kmh 29.95 in1014.2 mb - 0.00 in0.0 mm 0.00 in0.0 mm
07:20 AM 25.0°F-3.9°C 16.6°F-8.6°C 70% 8.1 mph W13.0 kmh W 9.2 mph14.8 kmh 29.94 in1013.9 mb - 0.00 in0.0 mm 0.00 in0.0 mm
07:15 AM 25.2°F-3.8°C 16.7°F-8.5°C 70% 8.1 mph W13.0 kmh W 11.5 mph18.5 kmh 29.94 in1013.9 mb - 0.00 in0.0 mm 0.00 in0.0 mm
07:10 AM 25.2°F-3.8°C 17.1°F-8.3°C 71% 6.9 mph W11.1 kmh W 11.5 mph18.5 kmh 29.94 in1013.9 mb - 0.00 in0.0 mm 0.00 in0.0 mm
07:00 AM 25.7°F-3.5°C 17.6°F-8.0°C 71% 4.6 mph WNW7.4 kmh WNW 6.9 mph11.1 kmh 29.94 in1013.9 mb - 0.00 in0.0 mm 0.00 in0.0 mm
06:55 AM 25.9°F-3.4°C 18.4°F-7.6°C 73% 5.8 mph W9.3 kmh W 3.5 mph5.6 kmh 29.94 in1013.9 mb - 0.00 in0.0 mm 0.00 in0.0 mm
06:50 AM 26.1°F-3.3°C 17.9°F-7.8°C 71% 8.1 mph W13.0 kmh W 10.4 mph16.7 kmh 29.94 in1013.9 mb - 0.00 in0.0 mm 0.00 in0.0 mm
06:45 AM 26.1°F-3.3°C 18.6°F-7.4°C 73% 8.1 mph WNW13.0 kmh WNW 11.5 mph18.5 kmh 29.93 in1013.5 mb - 0.00 in0.0 mm 0.00 in0.0 mm
06:40 AM 26.1°F-3.3°C 18.9°F-7.3°C 74% 6.9 mph W11.1 kmh W 8.1 mph13.0 kmh 29.94 in1013.9 mb - 0.00 in0.0 mm 0.00 in0.0 mm
06:35 AM 26.1°F-3.3°C 18.6°F-7.4°C 73% 8.1 mph W13.0 kmh W 12.7 mph20.4 kmh 29.93 in1013.5 mb - 0.00 in0.0 mm 0.00 in0.0 mm
06:30 AM 26.1°F-3.3°C 18.9°F-7.3°C 74% 6.9 mph WNW11.1 kmh WNW 9.2 mph14.8 kmh 29.94 in1013.9 mb - 0.00 in0.0 mm 0.00 in0.0 mm
06:25 AM 25.9°F-3.4°C 18.4°F-7.6°C 73% 6.9 mph SW11.1 kmh SW 6.9 mph11.1 kmh 29.93 in1013.5 mb - 0.00 in0.0 mm 0.00 in0.0 mm
06:20 AM 25.9°F-3.4°C 18.4°F-7.6°C 73% 5.8 mph NW9.3 kmh NW 5.8 mph9.3 kmh 29.93 in1013.5 mb - 0.00 in0.0 mm 0.00 in0.0 mm
06:15 AM 25.9°F-3.4°C 17.8°F-7.9°C 71% 8.1 mph W13.0 kmh W 11.5 mph18.5 kmh 29.93 in1013.5 mb - 0.00 in0.0 mm 0.00 in0.0 mm
06:10 AM 25.9°F-3.4°C 17.8°F-7.9°C 71% 8.1 mph W13.0 kmh W 9.2 mph14.8 kmh 29.93 in1013.5 mb - 0.00 in0.0 mm 0.00 in0.0 mm
06:00 AM 25.9°F-3.4°C 18.4°F-7.6°C 73% 6.9 mph W11.1 kmh W 6.9 mph11.1 kmh 29.93 in1013.5 mb - 0.00 in0.0 mm 0.00 in0.0 mm
05:55 AM 25.9°F-3.4°C 17.8°F-7.9°C 71% 8.1 mph WSW13.0 kmh WSW 11.5 mph18.5 kmh 29.93 in1013.5 mb - 0.00 in0.0 mm 0.00 in0.0 mm
05:50 AM 25.9°F-3.4°C 18.4°F-7.6°C 73% 5.8 mph WSW9.3 kmh WSW 9.2 mph14.8 kmh 29.93 in1013.5 mb - 0.00 in0.0 mm 0.00 in0.0 mm
05:45 AM 25.9°F-3.4°C 18.4°F-7.6°C 73% 5.8 mph WSW9.3 kmh WSW 6.9 mph11.1 kmh 29.92 in1013.2 mb - 0.00 in0.0 mm 0.00 in0.0 mm
05:40 AM 25.9°F-3.4°C 17.8°F-7.9°C 71% 6.9 mph W11.1 kmh W 6.9 mph11.1 kmh 29.93 in1013.5 mb - 0.00 in0.0 mm 0.00 in0.0 mm
05:35 AM 25.9°F-3.4°C 17.8°F-7.9°C 71% 8.1 mph WNW13.0 kmh WNW 18.4 mph29.6 kmh 29.93 in1013.5 mb - 0.00 in0.0 mm 0.00 in0.0 mm
05:30 AM 25.9°F-3.4°C 17.8°F-7.9°C 71% 8.1 mph WNW13.0 kmh WNW 11.5 mph18.5 kmh 29.93 in1013.5 mb - 0.00 in0.0 mm 0.00 in0.0 mm
05:25 AM 25.9°F-3.4°C 17.8°F-7.9°C 71% 5.8 mph W9.3 kmh W 8.1 mph13.0 kmh 29.93 in1013.5 mb - 0.00 in0.0 mm 0.00 in0.0 mm
05:20 AM 25.9°F-3.4°C 17.8°F-7.9°C 71% 4.6 mph W7.4 kmh W 9.2 mph14.8 kmh 29.93 in1013.5 mb - 0.00 in0.0 mm 0.00 in0.0 mm
05:15 AM 26.1°F-3.3°C 17.9°F-7.8°C 71% 5.8 mph W9.3 kmh W 9.2 mph14.8 kmh 29.93 in1013.5 mb - 0.00 in0.0 mm 0.00 in0.0 mm
05:10 AM 26.2°F-3.2°C 17.8°F-7.9°C 70% 6.9 mph NW11.1 kmh NW 8.1 mph13.0 kmh 29.92 in1013.2 mb - 0.00 in0.0 mm 0.00 in0.0 mm
05:00 AM 26.2°F-3.2°C 17.8°F-7.9°C 70% 9.2 mph WNW14.8 kmh WNW 9.2 mph14.8 kmh 29.92 in1013.2 mb - 0.00 in0.0 mm 0.00 in0.0 mm
04:55 AM 26.6°F-3.0°C 18.8°F-7.3°C 72% 9.2 mph W14.8 kmh W 16.1 mph25.9 kmh 29.91 in1012.9 mb - 0.00 in0.0 mm 0.00 in0.0 mm
04:50 AM 26.6°F-3.0°C 19.5°F-6.9°C 74% 8.1 mph WSW13.0 kmh WSW 8.1 mph13.0 kmh 29.92 in1013.2 mb - 0.00 in0.0 mm 0.00 in0.0 mm
04:45 AM 26.8°F-2.9°C 19.3°F-7.1°C 73% 6.9 mph W11.1 kmh W 8.1 mph13.0 kmh 29.92 in1013.2 mb - 0.00 in0.0 mm 0.00 in0.0 mm
04:40 AM 27.0°F-2.8°C 18.8°F-7.3°C 71% 6.9 mph WNW11.1 kmh WNW 10.4 mph16.7 kmh 29.91 in1012.9 mb - 0.00 in0.0 mm 0.00 in0.0 mm
04:35 AM 27.0°F-2.8°C 18.8°F-7.3°C 71% 5.8 mph WSW9.3 kmh WSW 9.2 mph14.8 kmh 29.91 in1012.9 mb - 0.00 in0.0 mm 0.00 in0.0 mm
04:30 AM 27.0°F-2.8°C 18.8°F-7.3°C 71% 6.9 mph SW11.1 kmh SW 6.9 mph11.1 kmh 29.90 in1012.5 mb - 0.00 in0.0 mm 0.00 in0.0 mm
04:25 AM 27.1°F-2.7°C 19.0°F-7.2°C 71% 8.1 mph W13.0 kmh W 6.9 mph11.1 kmh 29.90 in1012.5 mb - 0.00 in0.0 mm 0.00 in0.0 mm
04:20 AM 27.1°F-2.7°C 18.6°F-7.4°C 70% 8.1 mph WNW13.0 kmh WNW 9.2 mph14.8 kmh 29.91 in1012.9 mb - 0.00 in0.0 mm 0.00 in0.0 mm
04:15 AM 27.3°F-2.6°C 18.8°F-7.3°C 70% 9.2 mph W14.8 kmh W 11.5 mph18.5 kmh 29.90 in1012.5 mb - 0.00 in0.0 mm 0.00 in0.0 mm
04:10 AM 27.3°F-2.6°C 18.8°F-7.3°C 70% 8.1 mph WNW13.0 kmh WNW 12.7 mph20.4 kmh 29.91 in1012.9 mb - 0.00 in0.0 mm 0.00 in0.0 mm
04:00 AM 27.3°F-2.6°C 18.8°F-7.3°C 70% 9.2 mph W14.8 kmh W 15.0 mph24.1 kmh 29.91 in1012.9 mb - 0.00 in0.0 mm 0.00 in0.0 mm
03:55 AM 27.5°F-2.5°C 19.3°F-7.1°C 71% 9.2 mph W14.8 kmh W 10.4 mph16.7 kmh 29.90 in1012.5 mb - 0.00 in0.0 mm 0.00 in0.0 mm
03:50 AM 27.7°F-2.4°C 19.5°F-6.9°C 71% 10.4 mph W16.7 kmh W 17.3 mph27.8 kmh 29.90 in1012.5 mb - 0.00 in0.0 mm 0.00 in0.0 mm
03:45 AM 27.7°F-2.4°C 20.8°F-6.2°C 75% 6.9 mph NW11.1 kmh NW 9.2 mph14.8 kmh 29.90 in1012.5 mb - 0.00 in0.0 mm 0.00 in0.0 mm
03:40 AM 27.7°F-2.4°C 20.5°F-6.4°C 74% 9.2 mph W14.8 kmh W 12.7 mph20.4 kmh 29.89 in1012.2 mb - 0.00 in0.0 mm 0.00 in0.0 mm
03:35 AM 27.9°F-2.3°C 21.0°F-6.1°C 75% 6.9 mph WNW11.1 kmh WNW 11.5 mph18.5 kmh 29.88 in1011.9 mb - 0.00 in0.0 mm 0.00 in0.0 mm
03:30 AM 28.2°F-2.1°C 21.3°F-5.9°C 75% 8.1 mph NW13.0 kmh NW 4.6 mph7.4 kmh 29.88 in1011.9 mb - 0.00 in0.0 mm 0.00 in0.0 mm
03:25 AM 28.2°F-2.1°C 21.3°F-5.9°C 75% 8.1 mph NW13.0 kmh NW 4.6 mph7.4 kmh 29.88 in1011.9 mb - 0.00 in0.0 mm 0.00 in0.0 mm
03:20 AM 28.2°F-2.1°C 21.3°F-5.9°C 75% 8.1 mph NW13.0 kmh NW 4.6 mph7.4 kmh 29.88 in1011.9 mb - 0.00 in0.0 mm 0.00 in0.0 mm
03:15 AM 28.2°F-2.1°C 21.3°F-5.9°C 75% 9.2 mph W14.8 kmh W 8.1 mph13.0 kmh 29.88 in1011.9 mb - 0.00 in0.0 mm 0.00 in0.0 mm
03:10 AM 28.2°F-2.1°C 21.6°F-5.8°C 76% 11.5 mph WNW18.5 kmh WNW 10.4 mph16.7 kmh 29.88 in1011.9 mb - 0.00 in0.0 mm 0.00 in0.0 mm
03:00 AM 28.5°F-1.9°C 21.9°F-5.6°C 76% 8.1 mph W13.0 kmh W 11.5 mph18.5 kmh 29.88 in1011.9 mb - 0.00 in0.0 mm 0.00 in0.0 mm
02:55 AM 28.6°F-1.9°C 22.0°F-5.6°C 76% 10.4 mph W16.7 kmh W 10.4 mph16.7 kmh 29.89 in1012.2 mb - 0.00 in0.0 mm 0.00 in0.0 mm
02:50 AM 28.8°F-1.8°C 22.8°F-5.1°C 78% 10.4 mph S16.7 kmh S 17.3 mph27.8 kmh 29.88 in1011.9 mb - 0.00 in0.0 mm 0.00 in0.0 mm
02:45 AM 28.8°F-1.8°C 23.4°F-4.8°C 80% 8.1 mph W13.0 kmh W 12.7 mph20.4 kmh 29.88 in1011.9 mb - 0.00 in0.0 mm 0.00 in0.0 mm
02:40 AM 28.8°F-1.8°C 23.1°F-4.9°C 79% 8.1 mph SSE13.0 kmh SSE 5.8 mph9.3 kmh 29.88 in1011.9 mb - 0.00 in0.0 mm 0.00 in0.0 mm
02:35 AM 28.8°F-1.8°C 23.1°F-4.9°C 79% 9.2 mph W14.8 kmh W 12.7 mph20.4 kmh 29.88 in1011.9 mb - 0.00 in0.0 mm 0.00 in0.0 mm
02:30 AM 28.8°F-1.8°C 23.4°F-4.8°C 80% 9.2 mph W14.8 kmh W 11.5 mph18.5 kmh 29.88 in1011.9 mb - 0.00 in0.0 mm 0.00 in0.0 mm
02:25 AM 29.1°F-1.6°C 23.7°F-4.6°C 80% 6.9 mph W11.1 kmh W 13.8 mph22.2 kmh 29.88 in1011.9 mb - 0.00 in0.0 mm 0.00 in0.0 mm
02:20 AM 29.1°F-1.6°C 24.0°F-4.4°C 81% 6.9 mph W11.1 kmh W 9.2 mph14.8 kmh 29.88 in1011.9 mb - 0.00 in0.0 mm 0.00 in0.0 mm
02:15 AM 29.1°F-1.6°C 24.0°F-4.4°C 81% 9.2 mph W14.8 kmh W 12.7 mph20.4 kmh 29.88 in1011.9 mb - 0.00 in0.0 mm 0.00 in0.0 mm
02:10 AM 29.5°F-1.4°C 24.1°F-4.4°C 80% 8.1 mph W13.0 kmh W 10.4 mph16.7 kmh 29.88 in1011.9 mb - 0.00 in0.0 mm 0.00 in0.0 mm
02:00 AM 29.8°F-1.2°C 24.4°F-4.2°C 80% 4.6 mph W7.4 kmh W 5.8 mph9.3 kmh 29.87 in1011.5 mb - 0.00 in0.0 mm 0.00 in0.0 mm
01:55 AM 29.8°F-1.2°C 24.4°F-4.2°C 80% 8.1 mph WNW13.0 kmh WNW 10.4 mph16.7 kmh 29.87 in1011.5 mb - 0.00 in0.0 mm 0.00 in0.0 mm
01:50 AM 29.8°F-1.2°C 24.4°F-4.2°C 80% 6.9 mph W11.1 kmh W 12.7 mph20.4 kmh 29.86 in1011.2 mb - 0.00 in0.0 mm 0.00 in0.0 mm
01:45 AM 29.9°F-1.2°C 24.5°F-4.2°C 80% 6.9 mph W11.1 kmh W 9.2 mph14.8 kmh 29.86 in1011.2 mb - 0.00 in0.0 mm 0.00 in0.0 mm
01:40 AM 30.0°F-1.1°C 24.6°F-4.1°C 80% 6.9 mph W11.1 kmh W 10.4 mph16.7 kmh 29.86 in1011.2 mb - 0.00 in0.0 mm 0.00 in0.0 mm
01:35 AM 30.4°F-0.9°C 25.2°F-3.8°C 81% 5.8 mph W9.3 kmh W 8.1 mph13.0 kmh 29.86 in1011.2 mb - 0.00 in0.0 mm 0.00 in0.0 mm
01:30 AM 30.4°F-0.9°C 25.2°F-3.8°C 81% 8.1 mph W13.0 kmh W 11.5 mph18.5 kmh 29.86 in1011.2 mb - 0.00 in0.0 mm 0.00 in0.0 mm
01:25 AM 30.6°F-0.8°C 25.4°F-3.7°C 81% 8.1 mph W13.0 kmh W 11.5 mph18.5 kmh 29.86 in1011.2 mb - 0.00 in0.0 mm 0.00 in0.0 mm
01:20 AM 30.7°F-0.7°C 25.6°F-3.6°C 81% 9.2 mph W14.8 kmh W 10.4 mph16.7 kmh 29.85 in1010.8 mb - 0.00 in0.0 mm 0.00 in0.0 mm
01:15 AM 30.7°F-0.7°C 25.3°F-3.7°C 80% 9.2 mph NNW14.8 kmh NNW 13.8 mph22.2 kmh 29.85 in1010.8 mb - 0.00 in0.0 mm 0.00 in0.0 mm
01:10 AM 31.3°F-0.4°C 25.2°F-3.8°C 78% 6.9 mph NW11.1 kmh NW 8.1 mph13.0 kmh 29.85 in1010.8 mb - 0.00 in0.0 mm 0.00 in0.0 mm
01:00 AM 31.5°F-0.3°C 25.4°F-3.7°C 78% 5.8 mph NNW9.3 kmh NNW 9.2 mph14.8 kmh 29.84 in1010.5 mb - 0.00 in0.0 mm 0.00 in0.0 mm
12:55 AM 31.6°F-0.2°C 25.6°F-3.6°C 78% 5.8 mph W9.3 kmh W 8.1 mph13.0 kmh 29.84 in1010.5 mb - 0.00 in0.0 mm 0.00 in0.0 mm
12:50 AM 31.6°F-0.2°C 25.9°F-3.4°C 79% 5.8 mph W9.3 kmh W 10.4 mph16.7 kmh 29.84 in1010.5 mb - 0.00 in0.0 mm 0.00 in0.0 mm
12:45 AM 31.6°F-0.2°C 25.9°F-3.4°C 79% 4.6 mph NW7.4 kmh NW 8.1 mph13.0 kmh 29.83 in1010.2 mb - 0.00 in0.0 mm 0.00 in0.0 mm
12:40 AM 31.6°F-0.2°C 25.9°F-3.4°C 79% 5.8 mph W9.3 kmh W 5.8 mph9.3 kmh 29.83 in1010.2 mb - 0.00 in0.0 mm 0.00 in0.0 mm
12:35 AM 31.6°F-0.2°C 25.9°F-3.4°C 79% 6.9 mph W11.1 kmh W 8.1 mph13.0 kmh 29.83 in1010.2 mb - 0.00 in0.0 mm 0.00 in0.0 mm
12:30 AM 31.6°F-0.2°C 25.9°F-3.4°C 79% 5.8 mph WSW9.3 kmh WSW 9.2 mph14.8 kmh 29.83 in1010.2 mb - 0.00 in0.0 mm 0.00 in0.0 mm
12:25 AM 31.8°F-0.1°C 26.0°F-3.3°C 79% 9.2 mph W14.8 kmh W 9.2 mph14.8 kmh 29.83 in1010.2 mb - 0.00 in0.0 mm 0.00 in0.0 mm
12:20 AM 31.8°F-0.1°C 26.0°F-3.3°C 79% 9.2 mph NW14.8 kmh NW 15.0 mph24.1 kmh 29.83 in1010.2 mb - 0.00 in0.0 mm 0.00 in0.0 mm
12:15 AM 32.2°F0.1°C 27.0°F-2.8°C 81% 6.9 mph NW11.1 kmh NW 6.9 mph11.1 kmh 29.83 in1010.2 mb - 0.00 in0.0 mm 0.00 in0.0 mm
12:10 AM 32.2°F0.1°C 27.0°F-2.8°C 81% 6.9 mph W11.1 kmh W 11.5 mph18.5 kmh 29.83 in1010.2 mb - 0.00 in0.0 mm 0.00 in0.0 mm
12:00 AM 32.2°F0.1°C 27.0°F-2.8°C 81% 6.9 mph W11.1 kmh W 9.2 mph14.8 kmh 29.83 in1010.2 mb - 0.00 in0.0 mm 0.00 in0.0 mm